createdAt,value
2017-08-23T00:00:45.454Z,91.64
2017-08-23T00:01:45.459Z,92.11
2017-08-23T00:02:45.408Z,92.02
2017-08-23T00:03:45.386Z,91.83
2017-08-23T00:04:45.371Z,92.02
2017-08-23T00:05:45.344Z,91.54
2017-08-23T00:06:45.322Z,92.02
2017-08-23T00:07:45.299Z,92.02
2017-08-23T00:08:45.330Z,92.02
2017-08-23T00:09:45.255Z,91.93
2017-08-23T00:10:45.236Z,92.02
2017-08-23T00:11:45.217Z,92.02
2017-08-23T00:12:45.192Z,92.02
2017-08-23T00:13:45.176Z,91.83
2017-08-23T00:14:45.150Z,92.4
2017-08-23T00:15:45.124Z,92.4
2017-08-23T00:16:45.105Z,92.59
2017-08-23T00:17:45.082Z,92.59
2017-08-23T00:18:45.063Z,91.74
2017-08-23T00:19:45.065Z,92.4
2017-08-23T00:20:45.030Z,91.83
2017-08-23T00:21:44.994Z,91.64
2017-08-23T00:22:44.976Z,92.5
2017-08-23T00:23:44.956Z,92.5
2017-08-23T00:24:44.930Z,92.5
2017-08-23T00:25:44.917Z,92.4
2017-08-23T00:26:44.587Z,92.21
2017-08-23T00:27:44.567Z,92.21
2017-08-23T00:28:44.850Z,92.21
2017-08-23T00:29:44.827Z,92.69
2017-08-23T00:30:44.799Z,92.59
2017-08-23T00:31:44.830Z,92.79
2017-08-23T00:32:44.757Z,92.3
2017-08-23T00:33:44.742Z,92.74
2017-08-23T00:34:44.716Z,92.74
2017-08-23T00:35:44.692Z,92.69
2017-08-23T00:36:44.676Z,92.5
2017-08-23T00:37:44.649Z,92.79
2017-08-23T00:38:44.631Z,92.36
2017-08-23T00:39:44.622Z,92.55
2017-08-23T00:40:44.585Z,92.36
2017-08-23T00:41:44.560Z,92.55
2017-08-23T00:42:44.549Z,92.36
2017-08-23T00:43:44.524Z,92.83
2017-08-23T00:44:44.496Z,92.26
2017-08-23T00:45:44.473Z,92.64
2017-08-23T00:46:44.459Z,92.74
2017-08-23T00:47:44.435Z,93.12
2017-08-23T00:48:44.407Z,92.74
2017-08-23T00:49:44.388Z,93.02
2017-08-23T00:50:44.365Z,92.83
2017-08-23T00:51:44.346Z,93.12
2017-08-23T00:52:44.327Z,93.02
2017-08-23T00:53:44.347Z,93.12
2017-08-23T00:54:44.278Z,92.93
2017-08-23T00:55:44.257Z,92.93
2017-08-23T00:56:44.236Z,93.12
2017-08-23T00:57:44.264Z,93.21
2017-08-23T00:58:44.193Z,93.31
2017-08-23T00:59:44.174Z,93.02
2017-08-23T01:00:44.147Z,93.02
2017-08-23T01:01:44.134Z,93.21
2017-08-23T01:02:44.108Z,93.31
2017-08-23T01:03:44.082Z,93.02
2017-08-23T01:04:44.060Z,93.02
2017-08-23T01:05:44.093Z,93.21
2017-08-23T01:06:44.018Z,92.93
2017-08-23T01:07:43.995Z,93.21
2017-08-23T01:08:43.673Z,93.02
2017-08-23T01:09:43.955Z,93.21
2017-08-23T01:10:43.928Z,93.98
2017-08-23T01:11:43.915Z,93.5
2017-08-23T01:12:43.892Z,93.6
2017-08-23T01:13:43.867Z,93.31
2017-08-23T01:14:45.244Z,93.5
2017-08-23T01:15:43.825Z,93.31
2017-08-23T01:16:43.795Z,93.5
2017-08-23T01:17:43.779Z,93.31
2017-08-23T01:18:43.756Z,93.5
2017-08-23T01:19:43.734Z,93.7
2017-08-23T01:20:43.713Z,93.7
2017-08-23T01:21:58.298Z,93.41
2017-08-23T01:22:43.664Z,93.6
2017-08-23T01:23:43.654Z,93.31
2017-08-23T01:24:43.627Z,93.5
2017-08-23T01:25:44.101Z,93.88
2017-08-23T01:26:43.591Z,93.7
2017-08-23T01:27:43.562Z,93.88
2017-08-23T01:28:43.537Z,93.88
2017-08-23T01:29:43.518Z,94.07
2017-08-23T01:30:43.496Z,94.07
2017-08-23T01:31:43.471Z,94.03
2017-08-23T01:32:43.451Z,94.07
2017-08-23T01:33:43.435Z,93.98
2017-08-23T01:34:43.658Z,93.98
2017-08-23T01:35:43.384Z,93.88
2017-08-23T01:36:43.363Z,93.88
2017-08-23T01:37:43.340Z,94.12
2017-08-23T01:38:43.317Z,94.22
2017-08-23T01:39:43.292Z,94.17
2017-08-23T01:40:43.274Z,94.79
2017-08-23T01:41:43.250Z,94.51
2017-08-23T01:42:43.231Z,94.31
2017-08-23T01:43:43.260Z,94.41
2017-08-23T01:44:43.185Z,94.22
2017-08-23T01:45:43.170Z,94.31
2017-08-23T01:46:43.141Z,94.22
2017-08-23T01:47:43.124Z,94.31
2017-08-23T01:48:43.096Z,94.12
2017-08-23T01:49:43.076Z,94.31
2017-08-23T01:50:43.055Z,94.12
2017-08-23T01:51:43.030Z,94.6
2017-08-23T01:52:43.003Z,94.7
2017-08-23T01:53:42.996Z,94.51
2017-08-23T01:54:42.965Z,94.22
2017-08-23T01:55:42.949Z,94.22
2017-08-23T01:56:42.924Z,94.22
2017-08-23T01:57:42.897Z,94.31
2017-08-23T01:58:42.880Z,94.7
2017-08-23T01:59:42.865Z,94.7
2017-08-23T02:00:42.535Z,94.7
2017-08-23T02:01:42.815Z,94.89
2017-08-23T02:02:42.797Z,94.7
2017-08-23T02:03:42.776Z,94.6
2017-08-23T02:04:42.749Z,94.7
2017-08-23T02:05:42.727Z,94.7
2017-08-23T02:06:42.705Z,94.51
2017-08-23T02:07:42.686Z,94.6
2017-08-23T02:08:42.660Z,94.6
2017-08-23T02:09:42.689Z,94.7
2017-08-23T02:10:42.619Z,94.51
2017-08-23T02:11:42.592Z,94.51
2017-08-23T02:12:42.786Z,94.89
2017-08-23T02:13:42.550Z,94.89
2017-08-23T02:14:42.542Z,94.98
2017-08-23T02:15:42.506Z,94.31
2017-08-23T02:16:42.480Z,94.41
2017-08-23T02:17:42.463Z,95.17
2017-08-23T02:18:42.468Z,94.89
2017-08-23T02:19:42.417Z,94.6
2017-08-23T02:20:42.396Z,95.46
2017-08-23T02:21:42.370Z,94.7
2017-08-23T02:22:42.351Z,95.17
2017-08-23T02:23:42.327Z,95.27
2017-08-23T02:24:42.367Z,94.7
2017-08-23T02:25:42.283Z,94.31
2017-08-23T02:26:42.266Z,94.89
2017-08-23T02:27:42.237Z,95.36
2017-08-23T02:28:42.222Z,94.79
2017-08-23T02:29:42.194Z,95.56
2017-08-23T02:30:42.175Z,94.98
2017-08-23T02:31:42.156Z,95.08
2017-08-23T02:32:42.135Z,95.36
2017-08-23T02:33:42.113Z,95.08
2017-08-23T02:34:42.135Z,95.17
2017-08-23T02:35:42.071Z,95.27
2017-08-23T02:36:42.064Z,94.79
2017-08-23T02:37:42.021Z,94.79
2017-08-23T02:38:41.998Z,95.27
2017-08-23T02:39:41.975Z,95.27
2017-08-23T02:40:41.952Z,95.17
2017-08-23T02:41:41.934Z,94.89
2017-08-23T02:42:41.918Z,95.17
2017-08-23T02:43:41.891Z,95.17
2017-08-23T02:44:41.918Z,94.89
2017-08-23T02:45:41.845Z,94.89
2017-08-23T02:46:42.080Z,95.65
2017-08-23T02:47:41.805Z,94.98
2017-08-23T02:48:41.784Z,95.65
2017-08-23T02:49:41.756Z,94.98
2017-08-23T02:50:41.735Z,95.08
2017-08-23T02:51:41.717Z,94.93
2017-08-23T02:52:41.697Z,95.22
2017-08-23T02:53:41.677Z,94.84
2017-08-23T02:54:41.652Z,94.93
2017-08-23T02:55:41.621Z,95.03
2017-08-23T02:56:41.604Z,94.93
2017-08-23T02:57:41.580Z,94.84
2017-08-23T02:58:41.563Z,95.61
2017-08-23T02:59:41.590Z,95.65
2017-08-23T03:00:41.519Z,95.61
2017-08-23T03:01:41.490Z,95.61
2017-08-23T03:02:41.473Z,94.98
2017-08-23T03:03:41.449Z,95.08
2017-08-23T03:04:41.130Z,94.98
2017-08-23T03:05:41.409Z,95.65
2017-08-23T03:06:41.379Z,95.41
2017-08-23T03:07:41.362Z,95.46
2017-08-23T03:08:41.337Z,95.65
2017-08-23T03:09:41.314Z,94.93
2017-08-23T03:10:41.301Z,95.65
2017-08-23T03:11:41.277Z,95.51
2017-08-23T03:12:41.253Z,95.65
2017-08-23T03:13:41.232Z,95.17
2017-08-23T03:14:41.208Z,95.65
2017-08-23T03:15:41.183Z,95.65
2017-08-23T03:16:41.163Z,95.56
2017-08-23T03:17:41.138Z,95.41
2017-08-23T03:18:41.115Z,95.51
2017-08-23T03:19:41.142Z,95.7
2017-08-23T03:20:41.075Z,94.84
2017-08-23T03:21:41.055Z,95.61
2017-08-23T03:22:41.028Z,95.32
2017-08-23T03:23:41.009Z,95.61
2017-08-23T03:24:40.986Z,95.61
2017-08-23T03:25:40.965Z,95.51
2017-08-23T03:26:40.939Z,95.51
2017-08-23T03:27:40.920Z,95.51
2017-08-23T03:28:40.901Z,95.51
2017-08-23T03:29:40.873Z,95.51
2017-08-23T03:30:40.861Z,95.51
2017-08-23T03:31:40.832Z,96.08
2017-08-23T03:32:40.811Z,96.17
2017-08-23T03:33:40.485Z,96.17
2017-08-23T03:34:40.772Z,95.7
2017-08-23T03:35:40.749Z,95.89
2017-08-23T03:36:40.719Z,95.98
2017-08-23T03:37:40.706Z,95.98
2017-08-23T03:38:40.681Z,95.79
2017-08-23T03:39:40.656Z,95.98
2017-08-23T03:40:40.630Z,95.7
2017-08-23T03:41:40.608Z,95.98
2017-08-23T03:42:40.590Z,95.98
2017-08-23T03:43:40.564Z,95.98
2017-08-23T03:44:40.547Z,95.89
2017-08-23T03:45:40.526Z,95.79
2017-08-23T03:46:40.505Z,95.98
2017-08-23T03:47:40.475Z,95.79
2017-08-23T03:48:40.455Z,95.7
2017-08-23T03:49:40.488Z,95.61
2017-08-23T03:50:40.413Z,95.79
2017-08-23T03:51:40.385Z,95.41
2017-08-23T03:52:40.368Z,95.89
2017-08-23T03:53:40.344Z,95.98
2017-08-23T03:54:40.324Z,96.17
2017-08-23T03:55:40.300Z,95.7
2017-08-23T03:56:40.279Z,96.27
2017-08-23T03:57:40.258Z,96.17
2017-08-23T03:58:40.282Z,95.79
2017-08-23T03:59:40.209Z,96.17
2017-08-23T04:00:40.188Z,96.08
2017-08-23T04:01:40.172Z,96.17
2017-08-23T04:02:40.144Z,96.27
2017-08-23T04:03:40.130Z,96.08
2017-08-23T04:04:40.101Z,96.66
2017-08-23T04:05:40.081Z,96.56
2017-08-23T04:06:40.055Z,96.84
2017-08-23T04:07:40.033Z,96.66
2017-08-23T04:08:40.024Z,96.84
2017-08-23T04:09:39.988Z,96.66
2017-08-23T04:10:39.966Z,96.17
2017-08-23T04:11:39.947Z,96.27
2017-08-23T04:12:39.919Z,96.37
2017-08-23T04:13:39.604Z,96.56
2017-08-23T04:14:39.877Z,96.56
2017-08-23T04:15:39.861Z,96.75
2017-08-23T04:16:39.903Z,96.46
2017-08-23T04:17:39.814Z,96.27
2017-08-23T04:18:39.802Z,96.27
2017-08-23T04:19:39.771Z,96.27
2017-08-23T04:20:39.746Z,96.75
2017-08-23T04:21:39.725Z,96.37
2017-08-23T04:22:39.704Z,96.56
2017-08-23T04:23:39.680Z,96.56
2017-08-23T04:24:39.658Z,96.46
2017-08-23T04:25:39.644Z,96.27
2017-08-23T04:26:39.610Z,96.46
2017-08-23T04:27:39.585Z,96.46
2017-08-23T04:28:39.568Z,96.27
2017-08-23T04:29:39.548Z,96.66
2017-08-23T04:30:39.526Z,96.46
2017-08-23T04:31:39.499Z,96.66
2017-08-23T04:32:39.477Z,96.66
2017-08-23T04:33:39.458Z,96.27
2017-08-23T04:34:39.440Z,96.17
2017-08-23T04:35:39.415Z,96.27
2017-08-23T04:36:39.390Z,96.37
2017-08-23T04:37:39.369Z,96.27
2017-08-23T04:38:39.349Z,96.17
2017-08-23T04:39:39.325Z,96.37
2017-08-23T04:40:39.310Z,96.37
2017-08-23T04:41:39.276Z,96.56
2017-08-23T04:42:39.261Z,96.75
2017-08-23T04:43:39.236Z,96.66
2017-08-23T04:44:39.220Z,96.56
2017-08-23T04:45:39.190Z,96.66
2017-08-23T04:46:39.172Z,96.75
2017-08-23T04:47:39.155Z,96.56
2017-08-23T04:48:39.129Z,96.37
2017-08-23T04:49:39.110Z,96.46
2017-08-23T04:50:39.080Z,96.56
2017-08-23T04:51:39.068Z,96.56
2017-08-23T04:52:39.035Z,96.75
2017-08-23T04:53:39.011Z,96.17
2017-08-23T04:54:38.992Z,96.66
2017-08-23T04:55:38.977Z,96.46
2017-08-23T04:56:38.950Z,96.32
2017-08-23T04:57:38.927Z,96.03
2017-08-23T04:58:38.606Z,96.03
2017-08-23T04:59:38.878Z,95.75
2017-08-23T05:00:38.865Z,95.84
2017-08-23T05:01:38.846Z,96.22
2017-08-23T05:02:38.821Z,95.75
2017-08-23T05:03:38.794Z,95.65
2017-08-23T05:04:38.770Z,94.98
2017-08-23T05:05:38.752Z,95.17
2017-08-23T05:06:38.728Z,94.84
2017-08-23T05:07:38.706Z,95.22
2017-08-23T05:08:38.689Z,94.74
2017-08-23T05:09:38.670Z,94.55
2017-08-23T05:10:38.641Z,95.12
2017-08-23T05:11:38.620Z,94.74
2017-08-23T05:12:38.636Z,94.74
2017-08-23T05:13:38.274Z,93.79
2017-08-23T05:14:38.558Z,93.7
2017-08-23T05:15:38.535Z,94.07
2017-08-23T05:16:38.527Z,94.07
2017-08-23T05:17:38.492Z,93.41
2017-08-23T05:18:38.467Z,93.93
2017-08-23T05:19:38.447Z,93.74
2017-08-23T05:20:38.425Z,92.97
2017-08-23T05:21:38.407Z,92.79
2017-08-23T05:22:38.434Z,93.16
2017-08-23T05:23:38.365Z,92.59
2017-08-23T05:24:38.344Z,92.21
2017-08-23T05:25:38.319Z,92.64
2017-08-23T05:26:38.301Z,92.25
2017-08-23T05:27:38.278Z,91.88
2017-08-23T05:28:38.259Z,91.68
2017-08-23T05:29:38.267Z,90.92
2017-08-23T05:30:38.221Z,90.82
2017-08-23T05:31:38.210Z,91.06
2017-08-23T05:32:38.176Z,90.77
2017-08-23T05:33:38.151Z,90.3
2017-08-23T05:34:38.132Z,89.91
2017-08-23T05:35:38.110Z,89.67
2017-08-23T05:36:38.091Z,89.86
2017-08-23T05:37:38.069Z,89.38
2017-08-23T05:38:38.050Z,89.29
2017-08-23T05:39:38.030Z,89
2017-08-23T05:40:38.014Z,88.47
2017-08-23T05:41:37.999Z,87.7
2017-08-23T05:42:38.024Z,87.51
2017-08-23T05:43:38.205Z,87.51
2017-08-23T05:44:37.931Z,87.9
2017-08-23T05:45:37.908Z,87.61
2017-08-23T05:46:37.893Z,87.13
2017-08-23T05:47:37.870Z,86.55
2017-08-23T05:48:37.856Z,86.36
2017-08-23T05:49:37.828Z,86.21
2017-08-23T05:50:37.812Z,85.83
2017-08-23T05:51:37.787Z,85.54
2017-08-23T05:52:37.484Z,84.78
2017-08-23T05:53:37.746Z,84.97
2017-08-23T05:54:37.729Z,85.35
2017-08-23T05:55:37.704Z,84.49
2017-08-23T05:56:37.687Z,84.34
2017-08-23T05:57:37.675Z,83.58
2017-08-23T05:58:37.647Z,83.48
2017-08-23T05:59:37.629Z,83.67
2017-08-23T06:00:37.607Z,83.29
2017-08-23T06:01:37.593Z,83.61
2017-08-23T06:02:37.571Z,82.94
2017-08-23T06:03:37.552Z,82.65
2017-08-23T06:04:37.531Z,82.18
2017-08-23T06:05:37.511Z,81.31
2017-08-23T06:06:37.491Z,81.54
2017-08-23T06:07:37.480Z,80.87
2017-08-23T06:08:37.460Z,80.2
2017-08-23T06:09:37.437Z,79.14
2017-08-23T06:10:37.417Z,79.63
2017-08-23T06:11:37.395Z,79.34
2017-08-23T06:12:37.377Z,79.34
2017-08-23T06:13:37.355Z,78.96
2017-08-23T06:14:37.349Z,79.53
2017-08-23T06:15:37.323Z,78.67
2017-08-23T06:16:37.302Z,77.94
2017-08-23T06:17:37.286Z,77.98
2017-08-23T06:18:37.270Z,77.31
2017-08-23T06:19:37.247Z,75.87
2017-08-23T06:20:37.231Z,76.06
2017-08-23T06:21:37.209Z,75.77
2017-08-23T06:22:37.195Z,75.81
2017-08-23T06:23:37.182Z,75.23
2017-08-23T06:24:36.857Z,74.88
2017-08-23T06:25:37.140Z,73.73
2017-08-23T06:26:37.120Z,73.44
2017-08-23T06:27:37.119Z,73.63
2017-08-23T06:28:37.134Z,72.29
2017-08-23T06:29:37.063Z,71.42
2017-08-23T06:30:37.098Z,70.68
2017-08-23T06:31:37.091Z,70.98
2017-08-23T06:32:37.013Z,69.73
2017-08-23T06:33:36.995Z,69.06
2017-08-23T06:34:36.984Z,69.44
2017-08-23T06:35:36.963Z,70.17
2017-08-23T06:36:36.948Z,70.01
2017-08-23T06:37:36.929Z,69.82
2017-08-23T06:38:36.909Z,69.44
2017-08-23T06:39:36.887Z,69.09
2017-08-23T06:40:36.870Z,68.93
2017-08-23T06:41:36.856Z,67.97
2017-08-23T06:42:36.845Z,66.17
2017-08-23T06:43:36.828Z,65.4
2017-08-23T06:44:36.807Z,63.5
2017-08-23T06:45:36.791Z,62.63
2017-08-23T06:46:36.780Z,61.87
2017-08-23T06:47:36.763Z,61.87
2017-08-23T06:48:36.745Z,61.38
2017-08-23T06:49:36.725Z,60.52
2017-08-23T06:50:36.711Z,60.03
2017-08-23T06:51:36.751Z,58.81
2017-08-23T06:52:36.679Z,59
2017-08-23T06:53:36.662Z,59.2
2017-08-23T06:54:36.644Z,59.23
2017-08-23T06:55:36.631Z,57.78
2017-08-23T06:56:36.614Z,57.49
2017-08-23T06:57:36.599Z,56.94
2017-08-23T06:58:36.583Z,56.07
2017-08-23T06:59:36.570Z,55.9
2017-08-23T07:00:36.551Z,55.52
2017-08-23T07:01:36.288Z,54.65
2017-08-23T07:02:36.571Z,53.42
2017-08-23T07:03:36.510Z,53.23
2017-08-23T07:04:36.492Z,52.62
2017-08-23T07:05:36.477Z,52.94
2017-08-23T07:06:36.466Z,53.03
2017-08-23T07:07:36.447Z,52.45
2017-08-23T07:08:36.437Z,52.36
2017-08-23T07:09:36.416Z,51.9
2017-08-23T07:10:36.405Z,50.86
2017-08-23T07:11:36.388Z,50.76
2017-08-23T07:12:36.381Z,51.06
2017-08-23T07:13:36.358Z,50.09
2017-08-23T07:14:36.348Z,51.06
2017-08-23T07:15:36.331Z,49.8
2017-08-23T07:16:36.368Z,49.05
2017-08-23T07:17:36.308Z,48.86
2017-08-23T07:18:36.305Z,48.18
2017-08-23T07:19:36.277Z,48.2
2017-08-23T07:20:36.264Z,47.6
2017-08-23T07:21:36.250Z,46.92
2017-08-23T07:22:36.239Z,46.53
2017-08-23T07:23:36.223Z,47.77
2017-08-23T07:24:36.212Z,48.64
2017-08-23T07:25:36.201Z,48.35
2017-08-23T07:26:36.184Z,49.02
2017-08-23T07:27:36.180Z,48.64
2017-08-23T07:28:35.857Z,47.41
2017-08-23T07:29:35.846Z,47.21
2017-08-23T07:30:36.134Z,47.02
2017-08-23T07:31:36.122Z,47.5
2017-08-23T07:32:36.103Z,47.5
2017-08-23T07:33:35.794Z,47.21
2017-08-23T07:34:36.080Z,47.31
2017-08-23T07:35:36.069Z,47.5
2017-08-23T07:36:36.079Z,47.5
2017-08-23T07:37:36.044Z,46.36
2017-08-23T07:38:36.029Z,46.46
2017-08-23T07:39:36.012Z,46.17
2017-08-23T07:40:36.007Z,45.88
2017-08-23T07:41:35.989Z,45.61
2017-08-23T07:42:35.979Z,45.51
2017-08-23T07:43:36.021Z,45.51
2017-08-23T07:44:35.958Z,45.34
2017-08-23T07:45:35.950Z,45.34
2017-08-23T07:46:35.926Z,44.88
2017-08-23T07:47:35.924Z,44.2
2017-08-23T07:48:35.912Z,43.45
2017-08-23T07:49:35.893Z,43.16
2017-08-23T07:50:35.885Z,42.77
2017-08-23T07:51:35.873Z,41.89
2017-08-23T07:52:35.856Z,41.99
2017-08-23T07:53:35.849Z,41.99
2017-08-23T07:54:35.898Z,42.77
2017-08-23T07:55:35.823Z,41.43
2017-08-23T07:56:35.518Z,41.63
2017-08-23T07:57:35.806Z,41.53
2017-08-23T07:58:35.795Z,41.05
2017-08-23T07:59:35.475Z,41.14
2017-08-23T08:00:35.822Z,41.24
2017-08-23T08:01:35.757Z,41.63
2017-08-23T08:02:35.748Z,41.14
2017-08-23T08:03:35.746Z,40.67
2017-08-23T08:04:35.727Z,40.77
2017-08-23T08:05:35.718Z,40.5
2017-08-23T08:06:35.717Z,40.52
2017-08-23T08:07:35.704Z,40.13
2017-08-23T08:08:35.687Z,39.94
2017-08-23T08:09:35.385Z,38.89
2017-08-23T08:10:35.666Z,39.08
2017-08-23T08:11:35.655Z,40.21
2017-08-23T08:12:35.348Z,41.72
2017-08-23T08:13:35.641Z,41.41
2017-08-23T08:14:35.685Z,41.33
2017-08-23T08:15:35.622Z,40.48
2017-08-23T08:16:35.609Z,40.21
2017-08-23T08:17:35.599Z,40.58
2017-08-23T08:18:35.583Z,41.26
2017-08-23T08:19:35.579Z,40.29
2017-08-23T08:20:35.568Z,39.9
2017-08-23T08:21:35.560Z,40.48
2017-08-23T08:22:35.545Z,41.72
2017-08-23T08:23:35.540Z,42.67
2017-08-23T08:24:35.529Z,41.61
2017-08-23T08:25:35.516Z,41.24
2017-08-23T08:26:35.511Z,41.26
2017-08-23T08:27:35.505Z,41.26
2017-08-23T08:28:35.186Z,41.63
2017-08-23T08:29:35.479Z,41.16
2017-08-23T08:30:35.468Z,41.36
2017-08-23T08:31:35.509Z,40.48
2017-08-23T08:32:35.449Z,40.31
2017-08-23T08:33:35.443Z,40.6
2017-08-23T08:34:35.437Z,40.41
2017-08-23T08:35:35.423Z,40.67
2017-08-23T08:36:35.410Z,40.48
2017-08-23T08:37:35.401Z,40.41
2017-08-23T08:38:35.398Z,40.31
2017-08-23T08:39:35.388Z,40.41
2017-08-23T08:40:35.376Z,40.31
2017-08-23T08:41:35.364Z,41.08
2017-08-23T08:42:35.355Z,40.01
2017-08-23T08:43:35.050Z,40.42
2017-08-23T08:44:35.333Z,38.7
2017-08-23T08:45:35.325Z,38.71
2017-08-23T08:46:35.317Z,39.08
2017-08-23T08:47:35.305Z,39.45
2017-08-23T08:48:35.296Z,40.33
2017-08-23T08:49:35.291Z,40.31
2017-08-23T08:50:35.323Z,41.28
2017-08-23T08:51:35.268Z,40.99
2017-08-23T08:52:35.255Z,41.18
2017-08-23T08:53:35.254Z,40.99
2017-08-23T08:54:35.237Z,40.5
2017-08-23T08:55:35.233Z,41.08
2017-08-23T08:56:35.218Z,41.64
2017-08-23T08:57:35.207Z,41.47
2017-08-23T08:58:35.203Z,40.23
2017-08-23T08:59:35.196Z,40.72
2017-08-23T09:00:35.187Z,40.23
2017-08-23T09:01:35.169Z,39.28
2017-08-23T09:02:35.219Z,38.98
2017-08-23T09:03:35.248Z,39.69
2017-08-23T09:04:35.155Z,39.1
2017-08-23T09:05:35.137Z,38.44
2017-08-23T09:06:35.142Z,37.87
2017-08-23T09:07:35.129Z,37.48
2017-08-23T09:08:34.813Z,37.39
2017-08-23T09:09:35.106Z,38.32
2017-08-23T09:10:35.099Z,38.91
2017-08-23T09:11:35.090Z,39.18
2017-08-23T09:12:35.073Z,39
2017-08-23T09:13:35.073Z,38.42
2017-08-23T09:14:34.757Z,38.15
2017-08-23T09:15:35.053Z,38.05
2017-08-23T09:16:35.039Z,38.42
2017-08-23T09:17:35.029Z,38.6
2017-08-23T09:18:35.020Z,39.26
2017-08-23T09:19:34.710Z,39.55
2017-08-23T09:20:35.001Z,39.55
2017-08-23T09:21:34.992Z,39.16
2017-08-23T09:22:34.987Z,39.08
2017-08-23T09:23:34.975Z,38.42
2017-08-23T09:24:34.970Z,38.42
2017-08-23T09:25:34.956Z,38.32
2017-08-23T09:26:34.948Z,38.71
2017-08-23T09:27:34.935Z,38.62
2017-08-23T09:28:34.933Z,38.05
2017-08-23T09:29:34.921Z,38.05
2017-08-23T09:30:34.909Z,37.66
2017-08-23T09:31:34.908Z,37.76
2017-08-23T09:32:34.890Z,37.29
2017-08-23T09:33:34.584Z,37
2017-08-23T09:34:34.870Z,37.56
2017-08-23T09:35:34.870Z,37.19
2017-08-23T09:36:34.857Z,37.39
2017-08-23T09:37:34.849Z,36.53
2017-08-23T09:38:34.840Z,36.43
2017-08-23T09:39:34.833Z,37.19
2017-08-23T09:40:34.820Z,37.95
2017-08-23T09:41:34.818Z,38.52
2017-08-23T09:42:34.805Z,38.23
2017-08-23T09:43:34.793Z,38.52
2017-08-23T09:44:34.788Z,38.62
2017-08-23T09:45:34.781Z,38.62
2017-08-23T09:46:34.772Z,39.2
2017-08-23T09:47:34.762Z,39.28
2017-08-23T09:48:34.757Z,39.28
2017-08-23T09:49:34.746Z,40.34
2017-08-23T09:50:34.736Z,39.47
2017-08-23T09:51:34.735Z,39.84
2017-08-23T09:52:34.719Z,39.47
2017-08-23T09:53:34.709Z,40.23
2017-08-23T09:54:34.700Z,40.06
2017-08-23T09:55:34.690Z,39.2
2017-08-23T09:56:34.729Z,39
2017-08-23T09:57:34.668Z,38.73
2017-08-23T09:58:34.713Z,38.56
2017-08-23T09:59:34.655Z,38.54
2017-08-23T10:00:34.638Z,38.64
2017-08-23T10:01:34.335Z,38.64
2017-08-23T10:02:34.626Z,39.59
2017-08-23T10:03:34.624Z,40.64
2017-08-23T10:04:34.608Z,41.57
2017-08-23T10:05:34.596Z,42.05
2017-08-23T10:06:34.589Z,41.86
2017-08-23T10:07:34.580Z,41.96
2017-08-23T10:08:34.584Z,41.96
2017-08-23T10:09:34.561Z,42.05
2017-08-23T10:10:34.552Z,41.57
2017-08-23T10:11:34.545Z,41.13
2017-08-23T10:12:34.238Z,40.93
2017-08-23T10:13:34.525Z,40.83
2017-08-23T10:14:34.529Z,41.13
2017-08-23T10:15:34.507Z,41.32
2017-08-23T10:16:34.495Z,41.42
2017-08-23T10:17:34.482Z,41.32
2017-08-23T10:18:34.174Z,40.54
2017-08-23T10:19:34.465Z,41.22
2017-08-23T10:20:34.454Z,41.59
2017-08-23T10:21:34.445Z,41.59
2017-08-23T10:22:34.434Z,41.69
2017-08-23T10:23:34.421Z,41.88
2017-08-23T10:24:34.107Z,41.59
2017-08-23T10:25:34.404Z,42.08
2017-08-23T10:26:34.089Z,42.05
2017-08-23T10:27:34.390Z,41.88
2017-08-23T10:28:34.374Z,41.42
2017-08-23T10:29:34.214Z,41.32
2017-08-23T10:30:34.360Z,41.32
2017-08-23T10:31:34.347Z,40.93
2017-08-23T10:32:34.342Z,40.37
2017-08-23T10:33:34.329Z,40.95
2017-08-23T10:34:34.322Z,41.22
2017-08-23T10:35:34.362Z,42.08
2017-08-23T10:36:34.298Z,43.4
2017-08-23T10:37:34.295Z,44.73
2017-08-23T10:38:34.280Z,45.85
2017-08-23T10:39:33.969Z,47.74
2017-08-23T10:40:33.962Z,49
2017-08-23T10:41:33.953Z,49.46
2017-08-23T10:42:34.262Z,50.21
2017-08-23T10:43:34.222Z,52.14
2017-08-23T10:44:34.211Z,53.28
2017-08-23T10:45:34.196Z,53.28
2017-08-23T10:46:34.194Z,53.83
2017-08-23T10:47:34.171Z,53.74
2017-08-23T10:48:34.156Z,54.77
2017-08-23T10:49:34.162Z,54.77
2017-08-23T10:50:34.141Z,56.13
2017-08-23T10:51:34.122Z,56.1
2017-08-23T10:52:34.094Z,55.81
2017-08-23T10:53:34.081Z,57.06
2017-08-23T10:54:34.069Z,57.38
2017-08-23T10:55:34.052Z,56.8
2017-08-23T10:56:34.035Z,55.55
2017-08-23T10:57:34.014Z,55.83
2017-08-23T10:58:34.011Z,56.13
2017-08-23T10:59:34.003Z,56.77
2017-08-23T11:00:33.977Z,55.93
2017-08-23T11:01:33.956Z,56.32
2017-08-23T11:02:33.939Z,56.03
2017-08-23T11:03:33.922Z,55.74
2017-08-23T11:04:33.903Z,56.32
2017-08-23T11:05:33.889Z,55.93
2017-08-23T11:06:33.891Z,56.03
2017-08-23T11:07:33.855Z,56.13
2017-08-23T11:08:33.840Z,56.13
2017-08-23T11:09:33.869Z,56.22
2017-08-23T11:10:33.813Z,56.22
2017-08-23T11:11:33.789Z,56.8
2017-08-23T11:12:33.777Z,56.9
2017-08-23T11:13:33.756Z,56.71
2017-08-23T11:14:33.734Z,56.99
2017-08-23T11:15:33.721Z,56.8
2017-08-23T11:16:33.708Z,56.32
2017-08-23T11:17:33.687Z,55.93
2017-08-23T11:18:33.669Z,55.83
2017-08-23T11:19:33.652Z,56.03
2017-08-23T11:20:33.637Z,55.93
2017-08-23T11:21:33.628Z,56.13
2017-08-23T11:22:33.608Z,56.03
2017-08-23T11:23:33.584Z,56.13
2017-08-23T11:24:33.571Z,57.09
2017-08-23T11:25:33.547Z,56.61
2017-08-23T11:26:33.583Z,56.71
2017-08-23T11:27:33.533Z,56.71
2017-08-23T11:28:33.498Z,56.9
2017-08-23T11:29:33.479Z,56.9
2017-08-23T11:30:33.465Z,56.61
2017-08-23T11:31:33.447Z,55.83
2017-08-23T11:32:33.423Z,56.22
2017-08-23T11:33:33.409Z,55.74
2017-08-23T11:34:33.388Z,55.83
2017-08-23T11:35:33.373Z,55.55
2017-08-23T11:36:33.362Z,55.65
2017-08-23T11:37:33.346Z,56.22
2017-08-23T11:38:33.327Z,56.8
2017-08-23T11:39:33.302Z,55.93
2017-08-23T11:40:33.337Z,56.25
2017-08-23T11:41:33.280Z,56.35
2017-08-23T11:42:33.258Z,56.05
2017-08-23T11:43:33.247Z,55.47
2017-08-23T11:44:33.222Z,55.19
2017-08-23T11:45:33.254Z,55.19
2017-08-23T11:46:33.182Z,55.09
2017-08-23T11:47:33.222Z,54.99
2017-08-23T11:48:33.155Z,54.61
2017-08-23T11:49:33.130Z,54.9
2017-08-23T11:50:33.117Z,54.61
2017-08-23T11:51:33.144Z,55.19
2017-08-23T11:52:33.079Z,55.57
2017-08-23T11:53:33.057Z,55.89
2017-08-23T11:54:33.044Z,55.11
2017-08-23T11:55:33.027Z,54.83
2017-08-23T11:56:33.061Z,54.44
2017-08-23T11:57:32.997Z,53.86
2017-08-23T11:58:32.977Z,53.86
2017-08-23T11:59:32.668Z,53.74
2017-08-23T12:00:32.986Z,54.05
2017-08-23T12:01:32.921Z,53.93
2017-08-23T12:02:32.960Z,54.71
2017-08-23T12:03:32.948Z,54.8
2017-08-23T12:04:32.868Z,54.83
2017-08-23T12:05:32.856Z,54.15
2017-08-23T12:06:32.833Z,54.25
2017-08-23T12:07:32.907Z,54.44
2017-08-23T12:08:32.794Z,53.86
2017-08-23T12:09:32.485Z,54.05
2017-08-23T12:10:32.772Z,54.03
2017-08-23T12:11:32.446Z,54.71
2017-08-23T12:12:32.431Z,54.63
2017-08-23T12:13:32.714Z,54.63
2017-08-23T12:14:32.706Z,54.63
2017-08-23T12:15:32.677Z,54.63
2017-08-23T12:16:32.657Z,54.53
2017-08-23T12:17:32.640Z,53.96
2017-08-23T12:18:32.623Z,54.05
2017-08-23T12:19:32.617Z,54.15
2017-08-23T12:20:32.594Z,54.53
2017-08-23T12:21:32.585Z,54.83
2017-08-23T12:22:32.552Z,54.73
2017-08-23T12:23:32.536Z,54.15
2017-08-23T12:24:32.526Z,53.47
2017-08-23T12:25:32.508Z,53.96
2017-08-23T12:26:32.490Z,53.28
2017-08-23T12:27:32.468Z,53.57
2017-08-23T12:28:32.462Z,53.96
2017-08-23T12:29:32.438Z,54.05
2017-08-23T12:30:32.421Z,53.67
2017-08-23T12:31:32.400Z,53.77
2017-08-23T12:32:32.381Z,54.35
2017-08-23T12:33:32.359Z,54.93
2017-08-23T12:34:32.350Z,53.67
2017-08-23T12:35:32.337Z,53.57
2017-08-23T12:36:32.307Z,53.28
2017-08-23T12:37:32.297Z,53.28
2017-08-23T12:38:32.276Z,53.38
2017-08-23T12:39:32.309Z,53.38
2017-08-23T12:40:32.249Z,52.7
2017-08-23T12:41:31.925Z,52.8
2017-08-23T12:42:32.259Z,53.09
2017-08-23T12:43:32.198Z,53.47
2017-08-23T12:44:32.181Z,53.47
2017-08-23T12:45:32.153Z,53.86
2017-08-23T12:46:32.139Z,53.67
2017-08-23T12:47:32.122Z,53.11
2017-08-23T12:48:32.101Z,53.21
2017-08-23T12:49:32.085Z,52.92
2017-08-23T12:50:32.075Z,52.92
2017-08-23T12:51:32.051Z,52.92
2017-08-23T12:52:31.735Z,53.02
2017-08-23T12:53:32.024Z,52.53
2017-08-23T12:54:31.996Z,52.92
2017-08-23T12:55:31.984Z,52.53